createdAt,value
2018-12-07T00:00:55.671Z,12.25
2018-12-07T00:03:23.441Z,12.37
2018-12-07T00:05:50.815Z,12.48
2018-12-07T00:08:18.368Z,12.45
2018-12-07T00:10:46.012Z,12.62
2018-12-07T00:13:13.804Z,12.50
2018-12-07T00:15:41.501Z,12.49
2018-12-07T00:18:09.084Z,12.49
2018-12-07T00:20:36.522Z,12.51
2018-12-07T00:23:04.209Z,12.53
2018-12-07T00:25:31.698Z,12.57
2018-12-07T00:27:59.508Z,12.55
2018-12-07T00:30:27.380Z,12.57
2018-12-07T00:35:35.168Z,12.58
2018-12-07T00:38:03.096Z,12.58
2018-12-07T00:40:30.650Z,12.53
2018-12-07T00:42:58.195Z,12.51
2018-12-07T00:45:25.844Z,12.49
2018-12-07T00:47:53.552Z,12.57
2018-12-07T00:50:20.902Z,12.66
2018-12-07T00:52:48.560Z,12.74
2018-12-07T00:55:27.457Z,12.74
2018-12-07T00:57:55.194Z,12.72
2018-12-07T01:00:22.582Z,12.71
2018-12-07T01:02:50.392Z,12.71
2018-12-07T01:05:18.094Z,12.63
2018-12-07T01:07:45.584Z,12.58
2018-12-07T01:10:13.360Z,12.65
2018-12-07T01:12:40.916Z,12.67
2018-12-07T01:15:08.705Z,12.64
2018-12-07T01:17:36.507Z,12.60
2018-12-07T01:20:04.549Z,12.51
2018-12-07T01:22:33.804Z,12.63
2018-12-07T01:25:01.435Z,12.68
2018-12-07T01:27:29.066Z,12.66
2018-12-07T01:29:57.177Z,12.64
2018-12-07T01:32:24.851Z,12.55
2018-12-07T01:34:52.448Z,12.52
2018-12-07T01:37:20.051Z,12.56
2018-12-07T01:39:47.676Z,12.53
2018-12-07T01:42:15.118Z,12.46
2018-12-07T01:44:42.724Z,12.49
2018-12-07T01:47:10.356Z,12.66
2018-12-07T01:49:38.012Z,12.68
2018-12-07T01:52:05.693Z,12.61
2018-12-07T01:54:33.224Z,12.58
2018-12-07T01:57:00.869Z,12.49
2018-12-07T01:59:28.464Z,12.56
2018-12-07T02:01:56.232Z,12.49
2018-12-07T02:04:24.048Z,12.51
2018-12-07T02:06:51.619Z,12.63
2018-12-07T02:09:19.276Z,12.58
2018-12-07T02:11:46.880Z,12.51
2018-12-07T02:14:14.488Z,12.48
2018-12-07T02:16:42.210Z,12.46
2018-12-07T02:19:09.790Z,12.61
2018-12-07T02:21:37.719Z,12.70
2018-12-07T02:24:05.148Z,12.82
2018-12-07T02:26:33.752Z,12.85
2018-12-07T02:29:01.129Z,12.73
2018-12-07T02:31:28.889Z,12.78
2018-12-07T02:33:56.539Z,12.75
2018-12-07T02:36:24.401Z,12.84
2018-12-07T02:38:51.969Z,12.79
2018-12-07T02:41:19.435Z,12.74
2018-12-07T02:43:46.994Z,12.76
2018-12-07T02:46:14.664Z,12.79
2018-12-07T02:48:42.405Z,12.85
2018-12-07T02:51:10.100Z,12.93
2018-12-07T02:53:37.692Z,12.85
2018-12-07T02:56:05.393Z,12.74
2018-12-07T02:58:33.255Z,12.73
2018-12-07T03:01:00.983Z,12.68
2018-12-07T03:03:28.629Z,12.72
2018-12-07T03:05:56.080Z,12.75
2018-12-07T03:08:23.826Z,12.71
2018-12-07T03:10:51.294Z,12.80
2018-12-07T03:13:18.985Z,12.82
2018-12-07T03:15:46.726Z,12.80
2018-12-07T03:18:30.011Z,12.78
2018-12-07T03:20:57.467Z,12.74
2018-12-07T03:23:25.508Z,12.94
2018-12-07T03:25:53.381Z,12.90
2018-12-07T03:28:20.901Z,12.88
2018-12-07T03:30:48.525Z,12.89
2018-12-07T03:33:16.135Z,12.86
2018-12-07T03:35:43.489Z,12.79
2018-12-07T03:38:11.130Z,12.92
2018-12-07T03:40:39.061Z,12.76
2018-12-07T03:43:06.769Z,12.82
2018-12-07T03:45:34.588Z,12.79
2018-12-07T03:48:02.255Z,12.96
2018-12-07T03:50:29.704Z,12.94
2018-12-07T03:52:57.181Z,12.86
2018-12-07T03:55:24.749Z,12.78
2018-12-07T03:57:52.352Z,12.86
2018-12-07T04:00:20.155Z,12.93
2018-12-07T04:02:47.788Z,12.90
2018-12-07T04:05:15.547Z,12.90
2018-12-07T04:07:43.322Z,12.99
2018-12-07T04:10:10.860Z,12.91
2018-12-07T04:12:38.593Z,12.90
2018-12-07T04:15:06.296Z,12.85
2018-12-07T04:17:34.018Z,12.86
2018-12-07T04:20:01.615Z,12.88
2018-12-07T04:22:29.322Z,12.87
2018-12-07T04:24:57.004Z,12.85
2018-12-07T04:27:24.817Z,12.78
2018-12-07T04:30:02.590Z,12.76
2018-12-07T04:32:30.370Z,12.70
2018-12-07T04:34:58.017Z,12.82
2018-12-07T04:37:25.709Z,12.85
2018-12-07T04:39:53.492Z,12.83
2018-12-07T04:42:21.091Z,12.84
2018-12-07T04:44:48.411Z,12.87
2018-12-07T04:47:16.224Z,12.89
2018-12-07T04:49:43.808Z,12.86
2018-12-07T04:52:11.471Z,12.85
2018-12-07T04:54:39.218Z,12.76
2018-12-07T04:57:06.676Z,12.71
2018-12-07T04:59:34.406Z,12.70
2018-12-07T05:02:02.173Z,12.70
2018-12-07T05:04:29.886Z,12.69
2018-12-07T05:06:57.553Z,12.62
2018-12-07T05:09:25.206Z,12.58
2018-12-07T05:11:52.984Z,12.67
2018-12-07T05:14:20.636Z,12.67
2018-12-07T05:16:48.120Z,12.58
2018-12-07T05:19:18.642Z,12.62
2018-12-07T05:21:46.237Z,12.54
2018-12-07T05:24:13.984Z,12.45
2018-12-07T05:26:41.549Z,12.35
2018-12-07T05:29:09.217Z,12.33
2018-12-07T05:31:36.624Z,12.32
2018-12-07T05:34:04.229Z,12.28
2018-12-07T05:36:32.001Z,12.34
2018-12-07T05:38:59.395Z,12.34
2018-12-07T05:41:27.087Z,12.36
2018-12-07T05:43:56.303Z,12.43
2018-12-07T05:46:24.182Z,12.46
2018-12-07T05:48:52.017Z,12.54
2018-12-07T05:51:19.857Z,12.59
2018-12-07T05:53:47.715Z,12.54
2018-12-07T05:56:15.424Z,12.57
2018-12-07T05:58:42.895Z,12.56
2018-12-07T06:01:10.549Z,12.53
2018-12-07T06:03:38.172Z,12.40
2018-12-07T06:06:05.757Z,12.38
2018-12-07T06:08:33.113Z,12.40
2018-12-07T06:11:00.597Z,12.40
2018-12-07T06:13:28.125Z,12.34
2018-12-07T06:15:55.753Z,12.36
2018-12-07T06:18:23.443Z,12.31
2018-12-07T06:20:50.793Z,12.32
2018-12-07T06:23:18.527Z,12.30
2018-12-07T06:25:46.131Z,12.35
2018-12-07T06:28:13.735Z,12.42
2018-12-07T06:30:41.477Z,12.37
2018-12-07T06:33:09.153Z,12.34
2018-12-07T06:35:36.661Z,12.33
2018-12-07T06:38:04.364Z,12.34
2018-12-07T06:40:32.006Z,12.26
2018-12-07T06:42:59.616Z,12.35
2018-12-07T06:45:27.216Z,12.38
2018-12-07T06:47:55.028Z,12.50
2018-12-07T06:50:22.364Z,12.43
2018-12-07T06:52:50.052Z,12.43
2018-12-07T06:55:17.554Z,12.40
2018-12-07T06:57:45.255Z,12.35
2018-12-07T07:00:12.960Z,12.45
2018-12-07T07:02:40.782Z,12.41
2018-12-07T07:05:08.668Z,12.34
2018-12-07T07:07:36.414Z,12.37
2018-12-07T07:10:04.882Z,12.35
2018-12-07T07:12:32.718Z,12.31
2018-12-07T07:15:00.509Z,12.33
2018-12-07T07:17:28.114Z,12.31
2018-12-07T07:19:55.813Z,12.40
2018-12-07T07:22:23.473Z,12.32
2018-12-07T07:24:51.253Z,12.20
2018-12-07T07:27:18.959Z,12.12
2018-12-07T07:29:46.629Z,12.12
2018-12-07T07:32:14.378Z,12.20
2018-12-07T07:34:41.966Z,12.11
2018-12-07T07:37:09.480Z,12.12
2018-12-07T07:39:37.167Z,12.06
2018-12-07T07:42:04.665Z,12.12
2018-12-07T07:44:32.358Z,12.05
2018-12-07T07:46:59.942Z,11.94
2018-12-07T07:49:27.421Z,11.99
2018-12-07T07:51:55.174Z,11.99
2018-12-07T07:54:22.730Z,12.07
2018-12-07T07:56:50.352Z,12.04
2018-12-07T07:59:18.055Z,11.92
2018-12-07T08:01:45.902Z,11.89
2018-12-07T08:04:13.652Z,12.01
2018-12-07T08:06:41.268Z,12.05
2018-12-07T08:09:08.890Z,11.94
2018-12-07T08:11:36.498Z,11.99
2018-12-07T08:14:04.169Z,11.94
2018-12-07T08:16:31.789Z,11.98
2018-12-07T08:18:59.279Z,12.04
2018-12-07T08:21:27.162Z,11.92
2018-12-07T08:23:54.513Z,11.98
2018-12-07T08:26:22.190Z,12.03
2018-12-07T08:28:49.976Z,12.14
2018-12-07T08:31:17.584Z,12.27
2018-12-07T08:33:45.335Z,12.28
2018-12-07T08:36:13.199Z,12.33
2018-12-07T08:38:40.974Z,12.40
2018-12-07T08:41:08.731Z,12.45
2018-12-07T08:43:36.437Z,12.46
2018-12-07T08:46:04.527Z,12.51
2018-12-07T08:48:32.370Z,12.53
2018-12-07T08:51:00.083Z,12.46
2018-12-07T08:53:27.663Z,12.46
2018-12-07T08:55:55.413Z,12.45
2018-12-07T08:58:23.160Z,12.47
2018-12-07T09:00:50.757Z,12.43
2018-12-07T09:03:18.461Z,12.51
2018-12-07T09:05:45.984Z,12.59
2018-12-07T09:08:15.344Z,12.76
2018-12-07T09:10:42.972Z,12.84
2018-12-07T09:13:10.676Z,12.93
2018-12-07T09:15:38.265Z,12.86
2018-12-07T09:18:05.921Z,12.81
2018-12-07T09:20:33.327Z,12.77
2018-12-07T09:23:00.929Z,12.78
2018-12-07T09:25:28.639Z,12.78
2018-12-07T09:27:56.419Z,12.81
2018-12-07T09:30:24.161Z,12.80
2018-12-07T09:32:53.193Z,12.68
2018-12-07T09:35:20.749Z,12.68
2018-12-07T09:37:48.377Z,12.69
2018-12-07T09:40:16.130Z,12.72
2018-12-07T09:42:43.875Z,12.90
2018-12-07T09:45:11.697Z,12.91
2018-12-07T09:47:39.135Z,12.96
2018-12-07T09:50:07.440Z,12.95
2018-12-07T09:52:34.869Z,12.97
2018-12-07T09:55:02.565Z,12.85
2018-12-07T09:57:30.219Z,12.78
2018-12-07T09:59:57.920Z,12.75
2018-12-07T10:02:25.766Z,12.78
2018-12-07T10:04:53.617Z,12.78
2018-12-07T10:07:21.296Z,12.87
2018-12-07T10:09:48.752Z,12.90
2018-12-07T10:12:16.363Z,13.05
2018-12-07T10:14:44.067Z,13.01
2018-12-07T10:17:11.639Z,13.13
2018-12-07T10:19:39.506Z,13.12
2018-12-07T10:22:07.095Z,13.15
2018-12-07T10:24:34.620Z,13.13
2018-12-07T10:27:06.380Z,13.07
2018-12-07T10:29:34.291Z,13.09
2018-12-07T10:32:01.997Z,13.08
2018-12-07T10:34:29.414Z,13.14
2018-12-07T10:36:57.319Z,13.07
2018-12-07T10:39:24.910Z,13.09
2018-12-07T10:41:52.660Z,13.00
2018-12-07T10:44:20.223Z,12.97
2018-12-07T10:46:47.876Z,13.03
2018-12-07T10:49:15.523Z,13.01
2018-12-07T10:51:43.198Z,13.04
2018-12-07T10:54:11.102Z,13.00
2018-12-07T10:56:38.968Z,13.01
2018-12-07T10:59:06.660Z,12.98
2018-12-07T11:01:41.398Z,13.03
2018-12-07T11:05:17.375Z,13.05
2018-12-07T11:07:50.742Z,13.01
2018-12-07T11:10:24.097Z,13.04
2018-12-07T11:12:57.409Z,13.02
2018-12-07T11:15:30.994Z,13.01
2018-12-07T11:18:04.192Z,12.93
2018-12-07T11:20:37.372Z,12.91
2018-12-07T11:23:10.785Z,12.85
2018-12-07T11:25:44.244Z,12.77
2018-12-07T11:28:17.697Z,12.92
2018-12-07T11:30:50.763Z,12.87
2018-12-07T11:33:39.157Z,12.74
2018-12-07T11:36:08.234Z,12.84
2018-12-07T11:38:36.258Z,12.90
2018-12-07T11:41:04.168Z,12.80
2018-12-07T11:43:32.061Z,12.86
2018-12-07T11:45:59.811Z,12.83
2018-12-07T11:48:27.491Z,12.79
2018-12-07T11:50:54.875Z,12.76
2018-12-07T11:53:22.578Z,12.82
2018-12-07T11:55:50.326Z,13.01
2018-12-07T11:58:18.026Z,12.97
2018-12-07T12:00:45.538Z,12.91
2018-12-07T12:03:12.967Z,12.85
2018-12-07T12:05:40.444Z,12.86
2018-12-07T12:08:07.796Z,12.89
2018-12-07T12:10:35.882Z,12.89
2018-12-07T12:13:03.566Z,12.90
2018-12-07T12:15:31.271Z,12.87
2018-12-07T12:17:58.941Z,12.80
2018-12-07T12:20:26.537Z,12.77
2018-12-07T12:22:54.144Z,12.68
2018-12-07T12:25:21.949Z,12.67
2018-12-07T12:27:49.502Z,12.74
2018-12-07T12:30:17.942Z,12.68
2018-12-07T12:32:45.544Z,12.61
2018-12-07T12:35:13.324Z,12.68
2018-12-07T12:37:40.885Z,12.70
2018-12-07T12:40:08.763Z,12.61
2018-12-07T12:42:36.348Z,12.53
2018-12-07T12:45:04.255Z,12.38
2018-12-07T12:47:32.053Z,12.30
2018-12-07T12:49:59.492Z,12.24
2018-12-07T12:52:27.365Z,12.26
2018-12-07T12:54:55.133Z,12.28
2018-12-07T12:57:22.789Z,12.34
2018-12-07T12:59:50.397Z,12.26
2018-12-07T13:02:18.134Z,12.30
2018-12-07T13:04:45.857Z,12.36
2018-12-07T13:07:13.604Z,12.31
2018-12-07T13:09:41.161Z,12.36
2018-12-07T13:12:08.765Z,12.43
2018-12-07T13:14:36.393Z,12.52
2018-12-07T13:17:04.069Z,12.52
2018-12-07T13:19:31.861Z,12.39
2018-12-07T13:21:59.581Z,12.29
2018-12-07T13:24:27.425Z,12.29
2018-12-07T13:26:55.123Z,12.34
2018-12-07T13:29:23.527Z,12.31
2018-12-07T13:31:53.870Z,12.43
2018-12-07T13:34:21.434Z,12.43
2018-12-07T13:36:48.906Z,12.42
2018-12-07T13:39:16.783Z,12.43
2018-12-07T13:41:50.377Z,12.32
2018-12-07T13:44:14.328Z,12.24
2018-12-07T13:46:42.250Z,12.19
2018-12-07T13:49:10.149Z,12.10
2018-12-07T13:51:37.919Z,12.13
2018-12-07T13:54:05.920Z,12.19
2018-12-07T13:56:33.919Z,12.23
2018-12-07T13:59:01.581Z,12.23
2018-12-07T14:01:29.737Z,12.21
2018-12-07T14:03:57.513Z,12.19
2018-12-07T14:06:25.453Z,12.26
2018-12-07T14:08:53.285Z,12.21
2018-12-07T14:11:21.104Z,12.42
2018-12-07T14:13:48.562Z,12.35
2018-12-07T14:16:16.406Z,12.29
2018-12-07T14:18:43.924Z,12.27
2018-12-07T14:21:11.680Z,12.26
2018-12-07T14:23:39.129Z,12.16
2018-12-07T14:26:06.826Z,12.19
2018-12-07T14:28:34.694Z,12.15
2018-12-07T14:31:02.719Z,12.13
2018-12-07T14:33:30.562Z,12.21
2018-12-07T14:35:58.333Z,12.16
2018-12-07T14:38:26.082Z,12.19
2018-12-07T14:40:54.171Z,12.11
2018-12-07T14:43:21.926Z,12.09
2018-12-07T14:45:49.660Z,12.10
2018-12-07T14:48:17.443Z,12.17
2018-12-07T14:50:45.153Z,12.15
2018-12-07T14:53:12.958Z,12.21
2018-12-07T14:55:40.624Z,12.20
2018-12-07T14:58:08.622Z,12.03
2018-12-07T15:00:36.116Z,12.06
2018-12-07T15:03:03.840Z,12.05
2018-12-07T15:05:31.450Z,12.00
2018-12-07T15:07:59.278Z,11.92
2018-12-07T15:10:27.338Z,12.00
2018-12-07T15:12:55.305Z,12.07
2018-12-07T15:15:23.322Z,12.09
2018-12-07T15:17:51.176Z,11.97
2018-12-07T15:20:19.385Z,12.07
2018-12-07T15:22:47.400Z,12.03
2018-12-07T15:25:15.442Z,11.87
2018-12-07T15:27:43.361Z,11.80
2018-12-07T15:30:11.336Z,11.75
2018-12-07T15:32:39.312Z,11.59
2018-12-07T15:35:08.315Z,11.48
2018-12-07T15:37:36.002Z,11.47
2018-12-07T15:40:05.472Z,11.38
2018-12-07T15:42:33.081Z,11.41
2018-12-07T15:45:01.577Z,11.42
2018-12-07T15:47:29.192Z,11.43
2018-12-07T15:49:57.310Z,11.38
2018-12-07T15:52:25.531Z,11.39
2018-12-07T15:54:53.279Z,11.44
2018-12-07T15:57:21.084Z,11.41
2018-12-07T15:59:49.129Z,11.50
2018-12-07T16:02:17.215Z,11.46
2018-12-07T16:04:46.761Z,11.53
2018-12-07T16:07:14.688Z,11.58
2018-12-07T16:09:42.387Z,11.42
2018-12-07T16:12:10.249Z,11.29
2018-12-07T16:14:38.075Z,11.17
2018-12-07T16:17:06.256Z,11.16
2018-12-07T16:19:34.108Z,11.16
2018-12-07T16:22:02.193Z,11.15
2018-12-07T16:24:30.666Z,11.19
2018-12-07T16:26:58.392Z,11.27
2018-12-07T16:29:26.235Z,11.29
2018-12-07T16:31:54.231Z,11.26
2018-12-07T16:34:22.106Z,11.28
2018-12-07T16:36:50.051Z,11.42
2018-12-07T16:39:17.510Z,11.47
2018-12-07T16:41:45.623Z,11.40
2018-12-07T16:44:13.661Z,11.44
2018-12-07T16:46:41.650Z,11.39
2018-12-07T16:49:09.398Z,11.47
2018-12-07T16:51:37.155Z,11.47
2018-12-07T16:54:05.117Z,11.59
2018-12-07T16:56:32.988Z,11.47
2018-12-07T16:59:00.948Z,11.51
2018-12-07T17:01:28.935Z,11.59
2018-12-07T17:03:56.971Z,11.55
2018-12-07T17:06:24.972Z,11.39
2018-12-07T17:08:52.806Z,11.39
2018-12-07T17:11:20.439Z,11.40
2018-12-07T17:13:48.563Z,11.42
2018-12-07T17:16:16.218Z,11.41
2018-12-07T17:18:44.134Z,11.38
2018-12-07T17:21:12.087Z,11.26
2018-12-07T17:23:40.268Z,11.10
2018-12-07T17:26:08.127Z,11.08
2018-12-07T17:28:35.890Z,11.16
2018-12-07T17:31:03.691Z,11.14
2018-12-07T17:33:31.443Z,11.15
2018-12-07T17:35:59.342Z,11.10
2018-12-07T17:38:27.269Z,11.08
2018-12-07T17:40:55.350Z,10.91
2018-12-07T17:43:23.130Z,10.77
2018-12-07T17:45:51.060Z,10.72
2018-12-07T17:48:19.422Z,10.67
2018-12-07T17:50:47.100Z,10.88
2018-12-07T17:53:14.829Z,10.94
2018-12-07T17:55:42.654Z,10.88
2018-12-07T17:58:10.506Z,10.91
2018-12-07T18:00:38.375Z,10.89
2018-12-07T18:03:05.837Z,10.88
2018-12-07T18:05:33.495Z,10.82
2018-12-07T18:08:01.169Z,10.90
2018-12-07T18:10:28.937Z,11.06
2018-12-07T18:12:56.760Z,10.93
2018-12-07T18:15:24.651Z,10.81
2018-12-07T18:17:52.764Z,10.75
2018-12-07T18:20:20.385Z,10.72
2018-12-07T18:22:48.445Z,10.81
2018-12-07T18:25:16.196Z,10.71
2018-12-07T18:27:44.013Z,10.87
2018-12-07T18:30:12.203Z,10.83
2018-12-07T18:32:40.450Z,10.82
2018-12-07T18:35:08.621Z,10.76
2018-12-07T18:37:36.731Z,10.73
2018-12-07T18:40:05.218Z,10.69
2018-12-07T18:42:33.075Z,10.65
2018-12-07T18:45:01.127Z,10.71
2018-12-07T18:47:29.392Z,10.80
2018-12-07T18:49:57.936Z,10.76
2018-12-07T18:52:26.544Z,10.74
2018-12-07T18:54:54.311Z,10.79
2018-12-07T18:57:22.565Z,10.72
2018-12-07T18:59:50.633Z,10.77
2018-12-07T19:02:18.403Z,10.82
2018-12-07T19:04:46.579Z,10.89
2018-12-07T19:07:14.572Z,10.90
2018-12-07T19:09:42.552Z,10.97
2018-12-07T19:12:10.559Z,11.00
2018-12-07T19:14:38.452Z,11.01
2018-12-07T19:17:06.284Z,11.07
2018-12-07T19:19:34.514Z,11.09
2018-12-07T19:22:02.369Z,10.98
2018-12-07T19:24:30.177Z,11.07
2018-12-07T19:26:58.091Z,11.19
2018-12-07T19:29:26.082Z,11.20
2018-12-07T19:31:53.779Z,11.16
2018-12-07T19:34:21.766Z,11.20
2018-12-07T19:36:49.514Z,11.16
2018-12-07T19:39:17.317Z,11.35
2018-12-07T19:41:45.222Z,11.30
2018-12-07T19:44:13.221Z,11.31
2018-12-07T19:46:41.298Z,11.21
2018-12-07T19:49:09.466Z,11.15
2018-12-07T19:51:37.516Z,11.14
2018-12-07T19:54:05.441Z,11.09
2018-12-07T19:56:33.441Z,11.17
2018-12-07T19:59:01.365Z,11.36
2018-12-07T20:01:29.474Z,11.27
2018-12-07T20:03:57.332Z,11.16
2018-12-07T20:06:25.278Z,11.13
2018-12-07T20:08:54.402Z,11.11
2018-12-07T20:11:23.458Z,11.08
2018-12-07T20:13:52.471Z,11.09
2018-12-07T20:16:20.411Z,11.12
2018-12-07T20:18:48.321Z,11.10
2018-12-07T20:21:15.989Z,11.13
2018-12-07T20:23:43.646Z,11.17
2018-12-07T20:26:14.406Z,11.13
2018-12-07T20:28:42.214Z,10.98
2018-12-07T20:31:10.080Z,10.90
2018-12-07T20:33:38.142Z,10.80
2018-12-07T20:36:05.886Z,10.70
2018-12-07T20:38:34.114Z,10.58
2018-12-07T20:41:02.352Z,10.64
2018-12-07T20:43:30.519Z,10.62
2018-12-07T20:45:58.442Z,10.65
2018-12-07T20:48:26.372Z,10.63
2018-12-07T20:50:53.799Z,10.63
2018-12-07T20:53:21.760Z,10.55
2018-12-07T20:55:49.561Z,10.57
2018-12-07T20:58:17.432Z,10.43
2018-12-07T21:00:45.330Z,10.34
2018-12-07T21:03:13.147Z,10.32
2018-12-07T21:07:21.124Z,10.44
2018-12-07T21:09:54.037Z,10.22
2018-12-07T21:13:38.705Z,10.14
2018-12-07T21:17:19.268Z,10.36
2018-12-07T21:19:59.525Z,10.21
2018-12-07T21:22:27.393Z,10.03
2018-12-07T21:24:55.329Z,10.08
2018-12-07T21:27:23.043Z,9.95
2018-12-07T21:33:08.184Z,9.77
2018-12-07T21:36:42.342Z,9.71
2018-12-07T21:39:30.886Z,9.74
2018-12-07T21:41:58.634Z,9.72
2018-12-07T21:44:26.700Z,9.61
2018-12-07T21:46:54.567Z,9.40
2018-12-07T21:49:23.451Z,9.24
2018-12-07T21:51:58.005Z,9.04
2018-12-07T21:54:26.016Z,8.85
2018-12-07T21:56:54.186Z,8.63
2018-12-07T21:59:22.233Z,8.83
2018-12-07T22:01:51.860Z,8.46
2018-12-07T22:04:19.831Z,8.14
2018-12-07T22:06:48.202Z,7.94
2018-12-07T22:09:15.770Z,7.96
2018-12-07T22:11:43.527Z,7.86
2018-12-07T22:14:11.389Z,7.68
2018-12-07T22:16:39.857Z,7.47
2018-12-07T22:19:07.468Z,7.33
2018-12-07T22:21:35.204Z,7.30
2018-12-07T22:24:02.886Z,7.33
2018-12-07T22:26:32.527Z,7.15
2018-12-07T22:29:00.410Z,7.19
2018-12-07T22:31:28.366Z,7.22
2018-12-07T22:33:56.466Z,7.09
2018-12-07T22:36:24.632Z,7.18
2018-12-07T22:38:52.306Z,7.27
2018-12-07T22:41:20.190Z,7.13
2018-12-07T22:43:48.003Z,7.37
2018-12-07T22:46:16.029Z,7.11
2018-12-07T22:48:44.109Z,6.98
2018-12-07T22:51:11.867Z,7.08
2018-12-07T22:53:39.661Z,6.97
2018-12-07T22:56:13.115Z,6.76
2018-12-07T22:58:40.932Z,7.05
2018-12-07T23:01:08.768Z,7.03
2018-12-07T23:03:36.524Z,6.82
2018-12-07T23:06:04.352Z,6.63
2018-12-07T23:08:32.124Z,6.57
2018-12-07T23:10:59.785Z,6.76
2018-12-07T23:13:27.504Z,6.65
2018-12-07T23:15:54.854Z,6.54
2018-12-07T23:18:22.648Z,6.51
2018-12-07T23:20:49.980Z,6.73
2018-12-07T23:23:17.824Z,7.09
2018-12-07T23:25:45.522Z,7.30
2018-12-07T23:28:13.252Z,7.23
2018-12-07T23:30:40.729Z,7.16
2018-12-07T23:33:08.451Z,7.15
2018-12-07T23:35:35.882Z,7.10
2018-12-07T23:38:03.505Z,7.02
2018-12-07T23:40:31.114Z,6.90
2018-12-07T23:43:01.085Z,6.79
2018-12-07T23:45:29.477Z,6.73
2018-12-07T23:47:57.230Z,6.71
2018-12-07T23:50:24.887Z,6.68
2018-12-07T23:52:52.466Z,6.92
2018-12-07T23:55:20.304Z,6.87
2018-12-07T23:57:47.664Z,6.72
